SETU/TUA METAR and TAF weather

Enter ICAO airport designator
Station Type Date Time Source
SETU METAR 2021/07/27 21:00 UTC NOAA

SETU 272100Z 12008KT 9999 SCT020 16/08 Q1031


Station Type Date Time Source
SETU Decoded METAR 2021/07/27 21:00 UTC NOAA

Tulcan / El Rosal, Ecuador (SETU) 00-49N 077-42W
Jul 27, 2021 - 05:00 PM EDT / 2021.07.27 2100 UTC
Wind: from the ESE (120 degrees) at 9 MPH (8 KT):0
Visibility: greater than 7 mile(s):0
Sky conditions: partly cloudy
Temperature: 60 F (16 C)
Dew Point: 46 F (8 C)
Relative Humidity: 58%
Pressure (altimeter): 30.45 in. Hg (1031 hPa)
ob: SETU 272100Z 12008KT 9999 SCT020 16/08 Q1031
cycle: 21

Station Type Date Time Source
SETU TAF UTC NOAA

Error!

Example: see airport list